sensor_id;sensor_type;location;lat;lon;timestamp;pressure;altitude;pressure_sealevel;temperature;humidity
7586;BME280;12459;42.646;23.292;2023-05-07T00:03:06;93719.84;;;13.33;82.69
7586;BME280;12459;42.646;23.292;2023-05-07T00:18:09;93739.22;;;13.04;83.26
7586;BME280;12459;42.646;23.292;2023-05-07T00:33:10;93768.06;;;13.04;84.33
7586;BME280;12459;42.646;23.292;2023-05-07T00:48:12;93914.38;;;13.57;86.33
7586;BME280;12459;42.646;23.292;2023-05-07T01:03:15;93854.84;;;13.08;86.10
7586;BME280;12459;42.646;23.292;2023-05-07T01:18:17;93826.94;;;12.55;86.76
7586;BME280;12459;42.646;23.292;2023-05-07T01:33:21;93935.31;;;13.46;88.68
7586;BME280;12459;42.646;23.292;2023-05-07T01:48:24;93905.84;;;13.15;91.59
7586;BME280;12459;42.646;23.292;2023-05-07T02:03:27;93849.50;;;12.34;92.30
7586;BME280;12459;42.646;23.292;2023-05-07T02:18:29;93825.19;;;12.41;93.37
7586;BME280;12459;42.646;23.292;2023-05-07T02:33:31;93789.38;;;12.25;94.15
7586;BME280;12459;42.646;23.292;2023-05-07T02:48:33;93784.69;;;12.05;93.69
7586;BME280;12459;42.646;23.292;2023-05-07T03:03:35;93653.75;;;11.09;94.60
7586;BME280;12459;42.646;23.292;2023-05-07T03:18:36;93469.03;;;9.73;93.72
7586;BME280;12459;42.646;23.292;2023-05-07T03:48:53;93806.38;;;11.61;97.07
7586;BME280;12459;42.646;23.292;2023-05-07T04:03:55;93721.56;;;11.36;97.80
7586;BME280;12459;42.646;23.292;2023-05-07T04:18:58;93846.09;;;12.30;97.16
7586;BME280;12459;42.646;23.292;2023-05-07T04:33:59;93345.41;;;9.20;95.52
7586;BME280;12459;42.646;23.292;2023-05-07T04:49:01;93738.13;;;13.02;91.48
7586;BME280;12459;42.646;23.292;2023-05-07T05:04:03;93673.56;;;13.58;92.69
7586;BME280;12459;42.646;23.292;2023-05-07T05:19:05;93924.84;;;16.06;86.74
7586;BME280;12459;42.646;23.292;2023-05-07T05:34:06;93766.63;;;15.88;83.40
7586;BME280;12459;42.646;23.292;2023-05-07T05:49:08;93770.09;;;16.27;78.93
7586;BME280;12459;42.646;23.292;2023-05-07T06:04:10;93982.72;;;17.99;76.70
7586;BME280;12459;42.646;23.292;2023-05-07T06:19:11;93979.25;;;18.64;74.88
7586;BME280;12459;42.646;23.292;2023-05-07T06:34:13;93859.59;;;18.18;72.68
7586;BME280;12459;42.646;23.292;2023-05-07T06:49:18;93856.69;;;18.12;71.86
7586;BME280;12459;42.646;23.292;2023-05-07T07:04:19;93848.81;;;18.05;69.53
7586;BME280;12459;42.646;23.292;2023-05-07T07:19:23;93970.09;;;19.01;67.73
7586;BME280;12459;42.646;23.292;2023-05-07T07:34:25;93688.38;;;17.45;68.31
7586;BME280;12459;42.646;23.292;2023-05-07T07:49:27;93681.06;;;17.85;64.99
7586;BME280;12459;42.646;23.292;2023-05-07T08:04:29;93823.44;;;19.29;63.65
7586;BME280;12459;42.646;23.292;2023-05-07T08:19:32;93772.41;;;19.24;61.67
7586;BME280;12459;42.646;23.292;2023-05-07T08:34:33;93846.94;;;20.14;64.03
7586;BME280;12459;42.646;23.292;2023-05-07T08:49:35;93895.28;;;20.47;59.62
7586;BME280;12459;42.646;23.292;2023-05-07T09:04:37;93756.34;;;19.71;61.05
7586;BME280;12459;42.646;23.292;2023-05-07T09:19:39;93737.25;;;19.99;57.30
7586;BME280;12459;42.646;23.292;2023-05-07T09:34:41;93729.13;;;20.23;57.10
7586;BME280;12459;42.646;23.292;2023-05-07T09:49:47;93828.50;;;20.93;55.23
7586;BME280;12459;42.646;23.292;2023-05-07T10:04:50;93871.84;;;21.78;53.93
7586;BME280;12459;42.646;23.292;2023-05-07T10:19:53;93691.47;;;20.78;52.41
7586;BME280;12459;42.646;23.292;2023-05-07T10:34:56;93857.69;;;22.62;50.95
7586;BME280;12459;42.646;23.292;2023-05-07T11:41:36;93792.25;;;22.53;49.95
7586;BME280;12459;42.646;23.292;2023-05-07T11:56:38;93743.47;;;22.46;48.88
7586;BME280;12459;42.646;23.292;2023-05-07T12:11:45;93720.81;;;22.95;46.11
7586;BME280;12459;42.646;23.292;2023-05-07T12:26:48;93549.41;;;21.94;44.09
7586;BME280;12459;42.646;23.292;2023-05-07T12:58:27;93700.13;;;23.61;44.08
7586;BME280;12459;42.646;23.292;2023-05-07T13:13:34;93709.88;;;23.67;42.59
7586;BME280;12459;42.646;23.292;2023-05-07T13:28:36;93717.88;;;23.71;41.11
7586;BME280;12459;42.646;23.292;2023-05-07T13:43:38;93686.00;;;24.31;41.56
7586;BME280;12459;42.646;23.292;2023-05-07T13:58:40;93714.69;;;24.35;40.73
7586;BME280;12459;42.646;23.292;2023-05-07T14:13:57;93625.69;;;23.88;42.54
7586;BME280;12459;42.646;23.292;2023-05-07T14:28:59;93560.19;;;23.47;41.74
7586;BME280;12459;42.646;23.292;2023-05-07T14:44:01;93658.94;;;24.44;41.46
7586;BME280;12459;42.646;23.292;2023-05-07T14:59:05;93352.03;;;21.82;42.39
7586;BME280;12459;42.646;23.292;2023-05-07T15:14:07;93685.75;;;24.29;41.51
7586;BME280;12459;42.646;23.292;2023-05-07T15:29:08;93515.66;;;23.10;43.03
7586;BME280;12459;42.646;23.292;2023-05-07T15:44:11;93508.88;;;23.00;42.23
7586;BME280;12459;42.646;23.292;2023-05-07T15:59:14;93536.38;;;22.90;43.89
7586;BME280;12459;42.646;23.292;2023-05-07T16:14:16;93533.91;;;22.92;43.99
7586;BME280;12459;42.646;23.292;2023-05-07T16:29:18;93677.31;;;23.43;48.72
7586;BME280;12459;42.646;23.292;2023-05-07T16:44:21;93688.06;;;23.01;51.65
7586;BME280;12459;42.646;23.292;2023-05-07T16:59:22;93178.84;;;19.25;49.42
7586;BME280;12459;42.646;23.292;2023-05-07T17:14:24;93643.13;;;22.06;53.20
7586;BME280;12459;42.646;23.292;2023-05-07T17:29:26;93584.59;;;21.13;53.95
7586;BME280;12459;42.646;23.292;2023-05-07T17:44:27;93590.94;;;20.80;56.83
7586;BME280;12459;42.646;23.292;2023-05-07T17:59:29;93704.38;;;21.60;60.46
7586;BME280;12459;42.646;23.292;2023-05-07T18:14:31;93376.31;;;18.62;58.82
7586;BME280;12459;42.646;23.292;2023-05-07T18:29:33;93538.75;;;19.14;60.28
7586;BME280;12459;42.646;23.292;2023-05-07T18:44:34;93792.16;;;20.39;61.68
7586;BME280;12459;42.646;23.292;2023-05-07T18:59:39;93800.63;;;19.72;64.19
7586;BME280;12459;42.646;23.292;2023-05-07T19:14:40;93711.13;;;19.04;62.63
7586;BME280;12459;42.646;23.292;2023-05-07T19:29:43;93720.50;;;18.76;64.25
7586;BME280;12459;42.646;23.292;2023-05-07T19:44:44;93732.00;;;18.40;66.56
7586;BME280;12459;42.646;23.292;2023-05-07T19:59:46;93838.19;;;18.91;67.01
7586;BME280;12459;42.646;23.292;2023-05-07T20:14:48;93683.88;;;18.22;65.81
7586;BME280;12459;42.646;23.292;2023-05-07T20:29:50;93749.28;;;17.84;69.47
7586;BME280;12459;42.646;23.292;2023-05-07T20:44:52;93752.81;;;17.94;68.08
7586;BME280;12459;42.646;23.292;2023-05-07T20:59:56;93962.63;;;18.84;67.62
7586;BME280;12459;42.646;23.292;2023-05-07T21:14:58;93673.91;;;17.17;68.98
7586;BME280;12459;42.646;23.292;2023-05-07T21:29:59;93826.84;;;17.81;70.42
7586;BME280;12459;42.646;23.292;2023-05-07T21:45:05;93829.31;;;17.54;70.05
7586;BME280;12459;42.646;23.292;2023-05-07T22:00:07;93909.44;;;17.90;70.65
7586;BME280;12459;42.646;23.292;2023-05-07T22:15:10;93748.66;;;16.92;71.04
7586;BME280;12459;42.646;23.292;2023-05-07T22:30:11;93830.22;;;16.82;71.72
7586;BME280;12459;42.646;23.292;2023-05-07T22:45:14;93946.59;;;17.67;71.57
7586;BME280;12459;42.646;23.292;2023-05-07T23:00:15;93790.59;;;16.63;71.91
7586;BME280;12459;42.646;23.292;2023-05-07T23:15:18;93910.34;;;17.39;72.46
7586;BME280;12459;42.646;23.292;2023-05-07T23:30:20;93707.47;;;12.56;94.45
7586;BME280;12459;42.646;23.292;2023-05-07T23:45:22;93910.28;;;13.49;100.00
